sensor_id;sensor_type;location;lat;lon;timestamp;temperature;humidity
67364;HTU21D;54250;45.572;38.086;2023-06-10T00:02:14;19.51;71.85
67364;HTU21D;54250;45.572;38.086;2023-06-10T00:04:42;19.47;72.00
67364;HTU21D;54250;45.572;38.086;2023-06-10T00:07:08;19.44;71.89
67364;HTU21D;54250;45.572;38.086;2023-06-10T00:09:36;19.42;72.05
67364;HTU21D;54250;45.572;38.086;2023-06-10T00:12:06;19.40;72.06
67364;HTU21D;54250;45.572;38.086;2023-06-10T00:14:33;19.37;72.19
67364;HTU21D;54250;45.572;38.086;2023-06-10T00:16:59;19.37;72.25
67364;HTU21D;54250;45.572;38.086;2023-06-10T00:19:25;19.35;72.13
67364;HTU21D;54250;45.572;38.086;2023-06-10T00:21:56;19.33;72.29
67364;HTU21D;54250;45.572;38.086;2023-06-10T00:24:22;19.35;72.32
67364;HTU21D;54250;45.572;38.086;2023-06-10T00:26:48;19.33;72.39
67364;HTU21D;54250;45.572;38.086;2023-06-10T00:29:15;19.35;72.45
67364;HTU21D;54250;45.572;38.086;2023-06-10T00:31:41;19.35;72.48
67364;HTU21D;54250;45.572;38.086;2023-06-10T00:34:08;19.36;72.55
67364;HTU21D;54250;45.572;38.086;2023-06-10T00:36:34;19.36;72.46
67364;HTU21D;54250;45.572;38.086;2023-06-10T00:39:01;19.35;72.54
67364;HTU21D;54250;45.572;38.086;2023-06-10T00:41:28;19.37;72.52
67364;HTU21D;54250;45.572;38.086;2023-06-10T00:43:54;19.38;72.50
67364;HTU21D;54250;45.572;38.086;2023-06-10T00:46:24;19.37;72.35
67364;HTU21D;54250;45.572;38.086;2023-06-10T00:48:51;19.37;72.35
67364;HTU21D;54250;45.572;38.086;2023-06-10T00:51:18;19.38;72.33
67364;HTU21D;54250;45.572;38.086;2023-06-10T00:53:44;19.38;72.22
67364;HTU21D;54250;45.572;38.086;2023-06-10T00:56:11;19.41;72.22
67364;HTU21D;54250;45.572;38.086;2023-06-10T00:58:39;19.40;72.09
67364;HTU21D;54250;45.572;38.086;2023-06-10T01:01:05;19.42;72.17
67364;HTU21D;54250;45.572;38.086;2023-06-10T01:03:31;19.43;72.22
67364;HTU21D;54250;45.572;38.086;2023-06-10T01:11:46;19.36;72.17
67364;HTU21D;54250;45.572;38.086;2023-06-10T01:14:13;19.35;72.39
67364;HTU21D;54250;45.572;38.086;2023-06-10T01:16:42;19.35;72.38
67364;HTU21D;54250;45.572;38.086;2023-06-10T01:19:11;19.31;72.45
67364;HTU21D;54250;45.572;38.086;2023-06-10T01:21:38;19.32;72.63
67364;HTU21D;54250;45.572;38.086;2023-06-10T01:24:05;19.29;72.70
67364;HTU21D;54250;45.572;38.086;2023-06-10T01:26:34;19.29;72.83
67364;HTU21D;54250;45.572;38.086;2023-06-10T01:32:08;19.22;72.80
67364;HTU21D;54250;45.572;38.086;2023-06-10T01:34:39;19.18;72.84
67364;HTU21D;54250;45.572;38.086;2023-06-10T01:37:07;19.16;72.87
67364;HTU21D;54250;45.572;38.086;2023-06-10T01:39:39;19.13;72.93
67364;HTU21D;54250;45.572;38.086;2023-06-10T01:42:08;19.08;73.04
67364;HTU21D;54250;45.572;38.086;2023-06-10T01:44:35;19.02;73.05
67364;HTU21D;54250;45.572;38.086;2023-06-10T01:47:01;18.97;73.03
67364;HTU21D;54250;45.572;38.086;2023-06-10T01:49:27;18.96;72.96
67364;HTU21D;54250;45.572;38.086;2023-06-10T01:51:54;18.95;73.31
67364;HTU21D;54250;45.572;38.086;2023-06-10T01:54:20;18.95;73.22
67364;HTU21D;54250;45.572;38.086;2023-06-10T01:56:46;18.93;73.15
67364;HTU21D;54250;45.572;38.086;2023-06-10T01:59:12;18.91;73.09
67364;HTU21D;54250;45.572;38.086;2023-06-10T02:01:38;18.89;73.34
67364;HTU21D;54250;45.572;38.086;2023-06-10T02:04:04;18.89;73.35
67364;HTU21D;54250;45.572;38.086;2023-06-10T02:06:31;18.88;73.39
67364;HTU21D;54250;45.572;38.086;2023-06-10T02:08:57;18.89;73.44
67364;HTU21D;54250;45.572;38.086;2023-06-10T02:11:23;18.89;73.44
67364;HTU21D;54250;45.572;38.086;2023-06-10T02:13:51;18.89;73.41
67364;HTU21D;54250;45.572;38.086;2023-06-10T02:16:17;18.89;73.33
67364;HTU21D;54250;45.572;38.086;2023-06-10T02:18:44;18.89;73.39
67364;HTU21D;54250;45.572;38.086;2023-06-10T02:21:10;18.88;73.46
67364;HTU21D;54250;45.572;38.086;2023-06-10T02:23:37;18.89;73.38
67364;HTU21D;54250;45.572;38.086;2023-06-10T02:26:03;18.89;73.30
67364;HTU21D;54250;45.572;38.086;2023-06-10T02:28:29;18.93;73.38
67364;HTU21D;54250;45.572;38.086;2023-06-10T02:30:57;18.97;73.29
67364;HTU21D;54250;45.572;38.086;2023-06-10T02:33:25;19.03;73.16
67364;HTU21D;54250;45.572;38.086;2023-06-10T02:35:53;19.09;73.03
67364;HTU21D;54250;45.572;38.086;2023-06-10T02:38:19;19.12;72.93
67364;HTU21D;54250;45.572;38.086;2023-06-10T02:40:46;19.16;72.95
67364;HTU21D;54250;45.572;38.086;2023-06-10T02:43:13;19.21;72.97
67364;HTU21D;54250;45.572;38.086;2023-06-10T02:45:40;19.26;72.90
67364;HTU21D;54250;45.572;38.086;2023-06-10T02:48:07;19.31;72.72
67364;HTU21D;54250;45.572;38.086;2023-06-10T02:50:33;19.40;72.46
67364;HTU21D;54250;45.572;38.086;2023-06-10T02:53:12;19.54;72.18
67364;HTU21D;54250;45.572;38.086;2023-06-10T02:55:42;19.79;71.71
67364;HTU21D;54250;45.572;38.086;2023-06-10T02:58:11;19.91;71.33
67364;HTU21D;54250;45.572;38.086;2023-06-10T03:00:38;19.94;71.27
67364;HTU21D;54250;45.572;38.086;2023-06-10T03:03:07;19.97;71.22
67364;HTU21D;54250;45.572;38.086;2023-06-10T03:05:43;19.98;71.25
67364;HTU21D;54250;45.572;38.086;2023-06-10T03:08:09;20.03;71.12
67364;HTU21D;54250;45.572;38.086;2023-06-10T03:10:38;20.12;70.95
67364;HTU21D;54250;45.572;38.086;2023-06-10T03:13:05;20.25;70.66
67364;HTU21D;54250;45.572;38.086;2023-06-10T03:15:31;20.34;70.42
67364;HTU21D;54250;45.572;38.086;2023-06-10T03:18:00;20.55;70.15
67364;HTU21D;54250;45.572;38.086;2023-06-10T03:20:29;20.79;69.62
67364;HTU21D;54250;45.572;38.086;2023-06-10T03:22:56;20.92;69.39
67364;HTU21D;54250;45.572;38.086;2023-06-10T03:25:22;21.34;68.67
67364;HTU21D;54250;45.572;38.086;2023-06-10T03:27:51;21.76;67.75
67364;HTU21D;54250;45.572;38.086;2023-06-10T03:30:19;21.78;67.62
67364;HTU21D;54250;45.572;38.086;2023-06-10T03:32:46;21.81;67.79
67364;HTU21D;54250;45.572;38.086;2023-06-10T03:35:16;22.49;66.54
67364;HTU21D;54250;45.572;38.086;2023-06-10T03:37:43;23.22;64.94
67364;HTU21D;54250;45.572;38.086;2023-06-10T03:40:10;23.43;64.47
67364;HTU21D;54250;45.572;38.086;2023-06-10T03:42:38;23.38;64.56
67364;HTU21D;54250;45.572;38.086;2023-06-10T03:45:05;22.91;65.43
67364;HTU21D;54250;45.572;38.086;2023-06-10T03:47:34;22.42;66.20
67364;HTU21D;54250;45.572;38.086;2023-06-10T03:50:03;22.03;66.98
67364;HTU21D;54250;45.572;38.086;2023-06-10T03:52:30;21.82;67.51
67364;HTU21D;54250;45.572;38.086;2023-06-10T03:54:58;21.64;67.78
67364;HTU21D;54250;45.572;38.086;2023-06-10T03:57:24;21.52;68.02
67364;HTU21D;54250;45.572;38.086;2023-06-10T03:59:50;21.47;68.12
67364;HTU21D;54250;45.572;38.086;2023-06-10T04:02:16;21.40;68.26
67364;HTU21D;54250;45.572;38.086;2023-06-10T04:04:43;21.34;68.25
67364;HTU21D;54250;45.572;38.086;2023-06-10T04:07:09;21.24;68.36
67364;HTU21D;54250;45.572;38.086;2023-06-10T04:09:36;21.15;68.58
67364;HTU21D;54250;45.572;38.086;2023-06-10T04:12:04;21.09;68.76
67364;HTU21D;54250;45.572;38.086;2023-06-10T04:14:32;21.17;68.58
67364;HTU21D;54250;45.572;38.086;2023-06-10T04:16:58;21.31;68.36
67364;HTU21D;54250;45.572;38.086;2023-06-10T04:19:24;21.87;67.36
67364;HTU21D;54250;45.572;38.086;2023-06-10T04:21:51;22.78;65.41
67364;HTU21D;54250;45.572;38.086;2023-06-10T04:24:17;22.81;64.75
67364;HTU21D;54250;45.572;38.086;2023-06-10T04:26:44;22.63;65.46
67364;HTU21D;54250;45.572;38.086;2023-06-10T04:29:11;22.32;65.56
67364;HTU21D;54250;45.572;38.086;2023-06-10T04:31:37;22.02;66.33
67364;HTU21D;54250;45.572;38.086;2023-06-10T04:34:04;21.98;66.53
67364;HTU21D;54250;45.572;38.086;2023-06-10T04:36:30;22.23;65.88
67364;HTU21D;54250;45.572;38.086;2023-06-10T04:38:56;21.99;66.23
67364;HTU21D;54250;45.572;38.086;2023-06-10T04:41:22;21.89;66.69
67364;HTU21D;54250;45.572;38.086;2023-06-10T04:43:50;21.97;66.62
67364;HTU21D;54250;45.572;38.086;2023-06-10T04:46:16;22.07;66.42
67364;HTU21D;54250;45.572;38.086;2023-06-10T04:48:43;22.05;66.43
67364;HTU21D;54250;45.572;38.086;2023-06-10T04:51:10;21.88;66.87
67364;HTU21D;54250;45.572;38.086;2023-06-10T04:53:36;21.92;66.94
67364;HTU21D;54250;45.572;38.086;2023-06-10T04:56:03;21.96;66.98
67364;HTU21D;54250;45.572;38.086;2023-06-10T04:58:29;22.02;66.94
67364;HTU21D;54250;45.572;38.086;2023-06-10T05:00:55;22.09;66.85
67364;HTU21D;54250;45.572;38.086;2023-06-10T05:03:21;22.21;66.58
67364;HTU21D;54250;45.572;38.086;2023-06-10T05:05:48;22.41;66.12
67364;HTU21D;54250;45.572;38.086;2023-06-10T05:08:14;22.79;65.38
67364;HTU21D;54250;45.572;38.086;2023-06-10T05:10:40;23.30;64.38
67364;HTU21D;54250;45.572;38.086;2023-06-10T05:13:06;23.99;62.87
67364;HTU21D;54250;45.572;38.086;2023-06-10T05:15:32;24.44;61.79
67364;HTU21D;54250;45.572;38.086;2023-06-10T05:17:58;24.41;61.16
67364;HTU21D;54250;45.572;38.086;2023-06-10T05:20:25;24.13;61.89
67364;HTU21D;54250;45.572;38.086;2023-06-10T05:22:51;23.92;62.21
67364;HTU21D;54250;45.572;38.086;2023-06-10T05:25:17;23.57;62.88
67364;HTU21D;54250;45.572;38.086;2023-06-10T05:27:43;23.30;63.47
67364;HTU21D;54250;45.572;38.086;2023-06-10T05:30:10;23.11;63.93
67364;HTU21D;54250;45.572;38.086;2023-06-10T05:32:36;23.14;63.96
67364;HTU21D;54250;45.572;38.086;2023-06-10T05:35:02;23.16;63.73
67364;HTU21D;54250;45.572;38.086;2023-06-10T05:37:30;23.59;62.84
67364;HTU21D;54250;45.572;38.086;2023-06-10T05:39:56;23.74;62.15
67364;HTU21D;54250;45.572;38.086;2023-06-10T05:42:22;23.75;62.25
67364;HTU21D;54250;45.572;38.086;2023-06-10T05:44:48;23.80;62.02
67364;HTU21D;54250;45.572;38.086;2023-06-10T05:47:14;24.06;61.77
67364;HTU21D;54250;45.572;38.086;2023-06-10T05:49:40;24.43;60.67
67364;HTU21D;54250;45.572;38.086;2023-06-10T05:52:06;24.54;60.46
67364;HTU21D;54250;45.572;38.086;2023-06-10T05:54:32;25.24;59.15
67364;HTU21D;54250;45.572;38.086;2023-06-10T05:56:58;26.11;57.64
67364;HTU21D;54250;45.572;38.086;2023-06-10T05:59:24;26.89;56.04
67364;HTU21D;54250;45.572;38.086;2023-06-10T06:01:50;27.27;55.20
67364;HTU21D;54250;45.572;38.086;2023-06-10T06:04:16;27.87;54.35
67364;HTU21D;54250;45.572;38.086;2023-06-10T06:06:43;28.21;53.03
67364;HTU21D;54250;45.572;38.086;2023-06-10T06:09:09;28.30;53.35
67364;HTU21D;54250;45.572;38.086;2023-06-10T06:11:35;28.60;53.01
67364;HTU21D;54250;45.572;38.086;2023-06-10T06:14:01;29.24;51.88
67364;HTU21D;54250;45.572;38.086;2023-06-10T06:16:27;30.03;50.63
67364;HTU21D;54250;45.572;38.086;2023-06-10T06:18:54;29.63;50.18
67364;HTU21D;54250;45.572;38.086;2023-06-10T06:21:20;29.54;50.91
67364;HTU21D;54250;45.572;38.086;2023-06-10T06:23:46;30.00;50.14
67364;HTU21D;54250;45.572;38.086;2023-06-10T06:26:12;30.64;49.31
67364;HTU21D;54250;45.572;38.086;2023-06-10T06:28:38;30.83;48.45
67364;HTU21D;54250;45.572;38.086;2023-06-10T06:31:04;30.66;48.39
67364;HTU21D;54250;45.572;38.086;2023-06-10T06:33:30;30.65;48.28
67364;HTU21D;54250;45.572;38.086;2023-06-10T06:35:56;29.95;49.10
67364;HTU21D;54250;45.572;38.086;2023-06-10T06:38:22;29.49;50.44
67364;HTU21D;54250;45.572;38.086;2023-06-10T06:40:48;30.05;48.86
67364;HTU21D;54250;45.572;38.086;2023-06-10T06:43:14;30.50;48.14
67364;HTU21D;54250;45.572;38.086;2023-06-10T06:46:02;30.94;47.21
67364;HTU21D;54250;45.572;38.086;2023-06-10T06:48:28;30.85;47.18
67364;HTU21D;54250;45.572;38.086;2023-06-10T06:50:54;31.25;46.67
67364;HTU21D;54250;45.572;38.086;2023-06-10T06:53:22;31.71;46.09
67364;HTU21D;54250;45.572;38.086;2023-06-10T06:55:48;31.49;45.80
67364;HTU21D;54250;45.572;38.086;2023-06-10T06:58:14;30.67;46.38
67364;HTU21D;54250;45.572;38.086;2023-06-10T07:00:40;30.13;47.82
67364;HTU21D;54250;45.572;38.086;2023-06-10T07:03:06;30.12;47.38
67364;HTU21D;54250;45.572;38.086;2023-06-10T07:05:32;29.80;47.89
67364;HTU21D;54250;45.572;38.086;2023-06-10T07:07:58;29.63;48.13
67364;HTU21D;54250;45.572;38.086;2023-06-10T07:10:24;29.56;48.87
67364;HTU21D;54250;45.572;38.086;2023-06-10T07:12:51;29.87;48.17
67364;HTU21D;54250;45.572;38.086;2023-06-10T07:15:17;30.79;46.79
67364;HTU21D;54250;45.572;38.086;2023-06-10T07:17:43;30.78;46.15
67364;HTU21D;54250;45.572;38.086;2023-06-10T07:20:10;29.65;47.76
67364;HTU21D;54250;45.572;38.086;2023-06-10T07:22:36;28.92;49.21
67364;HTU21D;54250;45.572;38.086;2023-06-10T07:25:05;29.19;49.50
67364;HTU21D;54250;45.572;38.086;2023-06-10T07:27:31;29.66;48.28
67364;HTU21D;54250;45.572;38.086;2023-06-10T07:29:57;30.32;47.30
67364;HTU21D;54250;45.572;38.086;2023-06-10T07:32:24;31.30;46.05
67364;HTU21D;54250;45.572;38.086;2023-06-10T07:34:51;31.79;44.48
67364;HTU21D;54250;45.572;38.086;2023-06-10T07:37:17;31.45;45.14
67364;HTU21D;54250;45.572;38.086;2023-06-10T07:39:45;31.82;44.48
67364;HTU21D;54250;45.572;38.086;2023-06-10T07:42:11;32.17;44.20
67364;HTU21D;54250;45.572;38.086;2023-06-10T07:44:37;32.17;43.77
67364;HTU21D;54250;45.572;38.086;2023-06-10T07:47:03;32.20;43.52
67364;HTU21D;54250;45.572;38.086;2023-06-10T07:49:30;32.11;44.01
67364;HTU21D;54250;45.572;38.086;2023-06-10T07:51:56;32.39;43.40
67364;HTU21D;54250;45.572;38.086;2023-06-10T07:54:23;32.85;43.02
67364;HTU21D;54250;45.572;38.086;2023-06-10T07:56:49;32.66;43.13
67364;HTU21D;54250;45.572;38.086;2023-06-10T07:59:16;31.50;44.70
67364;HTU21D;54250;45.572;38.086;2023-06-10T08:01:41;30.54;45.62
67364;HTU21D;54250;45.572;38.086;2023-06-10T08:04:08;29.90;46.89
67364;HTU21D;54250;45.572;38.086;2023-06-10T08:06:34;29.65;47.20
67364;HTU21D;54250;45.572;38.086;2023-06-10T08:09:02;29.34;47.88
67364;HTU21D;54250;45.572;38.086;2023-06-10T08:11:29;29.24;48.46
67364;HTU21D;54250;45.572;38.086;2023-06-10T08:13:55;28.99;49.02
67364;HTU21D;54250;45.572;38.086;2023-06-10T08:16:22;29.45;48.41
67364;HTU21D;54250;45.572;38.086;2023-06-10T08:18:47;29.15;48.52
67364;HTU21D;54250;45.572;38.086;2023-06-10T08:21:16;28.58;49.65
67364;HTU21D;54250;45.572;38.086;2023-06-10T08:23:42;28.29;50.12
67364;HTU21D;54250;45.572;38.086;2023-06-10T08:26:08;28.41;50.46
67364;HTU21D;54250;45.572;38.086;2023-06-10T08:28:34;28.82;49.80
67364;HTU21D;54250;45.572;38.086;2023-06-10T08:31:00;29.02;49.49
67364;HTU21D;54250;45.572;38.086;2023-06-10T08:33:26;28.86;49.62
67364;HTU21D;54250;45.572;38.086;2023-06-10T08:35:52;28.79;49.87
67364;HTU21D;54250;45.572;38.086;2023-06-10T08:38:18;28.82;49.73
67364;HTU21D;54250;45.572;38.086;2023-06-10T08:40:44;28.88;49.80
67364;HTU21D;54250;45.572;38.086;2023-06-10T08:46:00;29.60;48.69
67364;HTU21D;54250;45.572;38.086;2023-06-10T08:48:30;30.42;47.70
67364;HTU21D;54250;45.572;38.086;2023-06-10T08:50:59;30.99;46.79
67364;HTU21D;54250;45.572;38.086;2023-06-10T08:53:27;31.22;46.67
67364;HTU21D;54250;45.572;38.086;2023-06-10T08:55:54;31.49;45.62
67364;HTU21D;54250;45.572;38.086;2023-06-10T08:58:21;31.02;46.80
67364;HTU21D;54250;45.572;38.086;2023-06-10T09:00:47;30.49;47.87
67364;HTU21D;54250;45.572;38.086;2023-06-10T09:03:13;30.46;48.08
67364;HTU21D;54250;45.572;38.086;2023-06-10T09:05:40;30.80;47.41
67364;HTU21D;54250;45.572;38.086;2023-06-10T09:08:06;30.90;47.41
67364;HTU21D;54250;45.572;38.086;2023-06-10T09:10:33;30.66;47.92
67364;HTU21D;54250;45.572;38.086;2023-06-10T09:12:59;30.33;48.75
67364;HTU21D;54250;45.572;38.086;2023-06-10T09:15:25;29.51;50.16
67364;HTU21D;54250;45.572;38.086;2023-06-10T09:17:51;28.93;51.31
67364;HTU21D;54250;45.572;38.086;2023-06-10T09:20:17;28.46;52.41
67364;HTU21D;54250;45.572;38.086;2023-06-10T09:22:43;28.29;53.28
67364;HTU21D;54250;45.572;38.086;2023-06-10T09:25:10;28.41;53.39
67364;HTU21D;54250;45.572;38.086;2023-06-10T09:27:49;28.43;53.53
67364;HTU21D;54250;45.572;38.086;2023-06-10T09:32:57;28.48;53.54
67364;HTU21D;54250;45.572;38.086;2023-06-10T09:35:24;28.48;53.44
67364;HTU21D;54250;45.572;38.086;2023-06-10T09:37:53;28.28;53.95
67364;HTU21D;54250;45.572;38.086;2023-06-10T09:40:19;28.29;54.04
67364;HTU21D;54250;45.572;38.086;2023-06-10T09:42:45;28.43;54.23
67364;HTU21D;54250;45.572;38.086;2023-06-10T09:45:14;28.45;54.31
67364;HTU21D;54250;45.572;38.086;2023-06-10T09:47:41;28.40;54.29
67364;HTU21D;54250;45.572;38.086;2023-06-10T09:50:07;28.37;54.41
67364;HTU21D;54250;45.572;38.086;2023-06-10T09:52:32;28.27;54.56
67364;HTU21D;54250;45.572;38.086;2023-06-10T09:55:01;28.47;54.23
67364;HTU21D;54250;45.572;38.086;2023-06-10T09:57:31;28.67;53.78
67364;HTU21D;54250;45.572;38.086;2023-06-10T09:59:58;28.62;53.65
67364;HTU21D;54250;45.572;38.086;2023-06-10T10:02:24;28.50;53.86
67364;HTU21D;54250;45.572;38.086;2023-06-10T10:04:49;28.56;53.72
67364;HTU21D;54250;45.572;38.086;2023-06-10T10:07:15;28.45;54.07
67364;HTU21D;54250;45.572;38.086;2023-06-10T10:09:41;28.31;54.61
67364;HTU21D;54250;45.572;38.086;2023-06-10T10:12:12;28.17;54.75
67364;HTU21D;54250;45.572;38.086;2023-06-10T10:14:38;28.20;54.90
67364;HTU21D;54250;45.572;38.086;2023-06-10T10:17:06;28.10;54.97
67364;HTU21D;54250;45.572;38.086;2023-06-10T10:19:33;27.93;55.78
67364;HTU21D;54250;45.572;38.086;2023-06-10T10:22:01;27.76;56.37
67364;HTU21D;54250;45.572;38.086;2023-06-10T10:24:36;27.71;56.04
67364;HTU21D;54250;45.572;38.086;2023-06-10T10:27:05;27.59;56.14
67364;HTU21D;54250;45.572;38.086;2023-06-10T10:29:35;27.40;56.55
67364;HTU21D;54250;45.572;38.086;2023-06-10T10:32:02;27.19;57.06
67364;HTU21D;54250;45.572;38.086;2023-06-10T10:34:49;27.11;57.21
67364;HTU21D;54250;45.572;38.086;2023-06-10T10:37:17;27.05;57.50
67364;HTU21D;54250;45.572;38.086;2023-06-10T10:39:44;27.00;57.74
67364;HTU21D;54250;45.572;38.086;2023-06-10T10:42:10;27.04;57.87
67364;HTU21D;54250;45.572;38.086;2023-06-10T10:44:37;27.04;58.09
67364;HTU21D;54250;45.572;38.086;2023-06-10T10:47:03;27.09;58.06
67364;HTU21D;54250;45.572;38.086;2023-06-10T10:49:32;27.08;58.09
67364;HTU21D;54250;45.572;38.086;2023-06-10T10:52:01;27.01;58.32
67364;HTU21D;54250;45.572;38.086;2023-06-10T10:57:12;27.08;58.81
67364;HTU21D;54250;45.572;38.086;2023-06-10T10:59:45;27.04;59.01
67364;HTU21D;54250;45.572;38.086;2023-06-10T11:02:15;27.05;58.85
67364;HTU21D;54250;45.572;38.086;2023-06-10T11:04:44;27.07;59.19
67364;HTU21D;54250;45.572;38.086;2023-06-10T11:07:10;27.16;59.16
67364;HTU21D;54250;45.572;38.086;2023-06-10T11:09:36;27.20;58.96
67364;HTU21D;54250;45.572;38.086;2023-06-10T11:12:03;27.15;58.81
67364;HTU21D;54250;45.572;38.086;2023-06-10T11:14:32;27.00;58.72
67364;HTU21D;54250;45.572;38.086;2023-06-10T11:16:58;26.85;58.90
67364;HTU21D;54250;45.572;38.086;2023-06-10T11:19:37;26.75;59.08
67364;HTU21D;54250;45.572;38.086;2023-06-10T11:22:07;26.68;59.55
67364;HTU21D;54250;45.572;38.086;2023-06-10T11:24:33;26.66;59.81
67364;HTU21D;54250;45.572;38.086;2023-06-10T11:27:18;26.67;59.96
67364;HTU21D;54250;45.572;38.086;2023-06-10T11:32:33;26.47;60.19
67364;HTU21D;54250;45.572;38.086;2023-06-10T11:34:59;26.35;60.25
67364;HTU21D;54250;45.572;38.086;2023-06-10T11:37:24;26.32;60.30
67364;HTU21D;54250;45.572;38.086;2023-06-10T11:39:54;26.22;60.22
67364;HTU21D;54250;45.572;38.086;2023-06-10T11:42:20;26.09;60.55
67364;HTU21D;54250;45.572;38.086;2023-06-10T11:44:52;25.97;60.91
67364;HTU21D;54250;45.572;38.086;2023-06-10T11:47:18;25.84;61.01
67364;HTU21D;54250;45.572;38.086;2023-06-10T11:49:45;25.69;61.19
67364;HTU21D;54250;45.572;38.086;2023-06-10T11:52:12;25.50;61.51
67364;HTU21D;54250;45.572;38.086;2023-06-10T11:54:38;25.31;61.88
67364;HTU21D;54250;45.572;38.086;2023-06-10T11:57:04;25.15;62.13
67364;HTU21D;54250;45.572;38.086;2023-06-10T11:59:31;25.02;62.37
67364;HTU21D;54250;45.572;38.086;2023-06-10T12:01:58;24.90;62.41
67364;HTU21D;54250;45.572;38.086;2023-06-10T12:04:24;24.84;62.58
67364;HTU21D;54250;45.572;38.086;2023-06-10T12:06:53;24.77;62.75
67364;HTU21D;54250;45.572;38.086;2023-06-10T12:12:05;24.66;63.21
67364;HTU21D;54250;45.572;38.086;2023-06-10T12:20:00;24.65;63.28
67364;HTU21D;54250;45.572;38.086;2023-06-10T12:22:26;24.66;63.31
67364;HTU21D;54250;45.572;38.086;2023-06-10T12:24:59;24.66;63.34
67364;HTU21D;54250;45.572;38.086;2023-06-10T12:27:27;24.63;63.40
67364;HTU21D;54250;45.572;38.086;2023-06-10T12:29:56;24.60;63.70
67364;HTU21D;54250;45.572;38.086;2023-06-10T12:32:42;24.55;63.68
67364;HTU21D;54250;45.572;38.086;2023-06-10T12:35:10;24.53;63.89
67364;HTU21D;54250;45.572;38.086;2023-06-10T12:37:39;24.46;64.05
67364;HTU21D;54250;45.572;38.086;2023-06-10T12:40:06;24.43;64.30
67364;HTU21D;54250;45.572;38.086;2023-06-10T12:42:35;24.43;64.43
67364;HTU21D;54250;45.572;38.086;2023-06-10T12:45:03;24.41;64.57
67364;HTU21D;54250;45.572;38.086;2023-06-10T12:47:31;24.40;64.83
67364;HTU21D;54250;45.572;38.086;2023-06-10T12:49:59;24.38;65.00
67364;HTU21D;54250;45.572;38.086;2023-06-10T12:52:25;24.38;65.00
67364;HTU21D;54250;45.572;38.086;2023-06-10T12:54:52;24.40;65.22
67364;HTU21D;54250;45.572;38.086;2023-06-10T12:57:18;24.40;65.38
67364;HTU21D;54250;45.572;38.086;2023-06-10T12:59:44;24.36;65.54
67364;HTU21D;54250;45.572;38.086;2023-06-10T13:02:16;24.36;65.55
67364;HTU21D;54250;45.572;38.086;2023-06-10T13:04:46;24.35;65.66
67364;HTU21D;54250;45.572;38.086;2023-06-10T13:07:12;24.36;65.59
67364;HTU21D;54250;45.572;38.086;2023-06-10T13:09:38;24.35;66.00
67364;HTU21D;54250;45.572;38.086;2023-06-10T13:12:05;24.36;66.17
67364;HTU21D;54250;45.572;38.086;2023-06-10T13:14:32;24.39;66.30
67364;HTU21D;54250;45.572;38.086;2023-06-10T13:16:58;24.39;66.39
67364;HTU21D;54250;45.572;38.086;2023-06-10T13:19:24;24.42;66.44
67364;HTU21D;54250;45.572;38.086;2023-06-10T13:21:51;24.47;66.59
67364;HTU21D;54250;45.572;38.086;2023-06-10T13:24:17;24.56;66.52
67364;HTU21D;54250;45.572;38.086;2023-06-10T13:26:44;24.69;66.41
67364;HTU21D;54250;45.572;38.086;2023-06-10T13:29:10;24.78;66.36
67364;HTU21D;54250;45.572;38.086;2023-06-10T13:31:40;24.90;66.10
67364;HTU21D;54250;45.572;38.086;2023-06-10T13:34:07;25.02;65.96
67364;HTU21D;54250;45.572;38.086;2023-06-10T13:36:33;25.09;65.77
67364;HTU21D;54250;45.572;38.086;2023-06-10T13:38:59;25.19;65.78
67364;HTU21D;54250;45.572;38.086;2023-06-10T13:41:25;25.24;65.60
67364;HTU21D;54250;45.572;38.086;2023-06-10T13:43:54;25.28;65.64
67364;HTU21D;54250;45.572;38.086;2023-06-10T13:46:21;25.29;65.69
67364;HTU21D;54250;45.572;38.086;2023-06-10T13:48:48;25.27;65.75
67364;HTU21D;54250;45.572;38.086;2023-06-10T13:51:14;25.20;65.97
67364;HTU21D;54250;45.572;38.086;2023-06-10T13:53:40;25.07;66.27
67364;HTU21D;54250;45.572;38.086;2023-06-10T13:56:06;24.99;66.61
67364;HTU21D;54250;45.572;38.086;2023-06-10T13:58:32;24.92;66.78
67364;HTU21D;54250;45.572;38.086;2023-06-10T14:01:05;24.87;67.00
67364;HTU21D;54250;45.572;38.086;2023-06-10T14:03:31;24.82;67.28
67364;HTU21D;54250;45.572;38.086;2023-06-10T14:05:57;24.78;67.78
67364;HTU21D;54250;45.572;38.086;2023-06-10T14:08:23;24.74;67.95
67364;HTU21D;54250;45.572;38.086;2023-06-10T14:10:50;24.70;68.20
67364;HTU21D;54250;45.572;38.086;2023-06-10T14:13:17;24.68;68.34
67364;HTU21D;54250;45.572;38.086;2023-06-10T14:15:43;24.64;68.46
67364;HTU21D;54250;45.572;38.086;2023-06-10T14:18:10;24.62;68.59
67364;HTU21D;54250;45.572;38.086;2023-06-10T14:20:36;24.58;68.81
67364;HTU21D;54250;45.572;38.086;2023-06-10T14:23:03;24.57;68.97
67364;HTU21D;54250;45.572;38.086;2023-06-10T14:25:30;24.54;69.12
67364;HTU21D;54250;45.572;38.086;2023-06-10T14:27:56;24.53;69.17
67364;HTU21D;54250;45.572;38.086;2023-06-10T14:30:23;24.49;69.33
67364;HTU21D;54250;45.572;38.086;2023-06-10T14:32:49;24.46;69.28
67364;HTU21D;54250;45.572;38.086;2023-06-10T14:35:15;24.42;69.46
67364;HTU21D;54250;45.572;38.086;2023-06-10T14:37:41;24.41;69.65
67364;HTU21D;54250;45.572;38.086;2023-06-10T14:40:08;24.38;69.91
67364;HTU21D;54250;45.572;38.086;2023-06-10T14:42:34;24.32;70.06
67364;HTU21D;54250;45.572;38.086;2023-06-10T14:45:00;24.28;70.29
67364;HTU21D;54250;45.572;38.086;2023-06-10T14:47:26;24.25;70.43
67364;HTU21D;54250;45.572;38.086;2023-06-10T14:49:52;24.23;70.63
67364;HTU21D;54250;45.572;38.086;2023-06-10T14:52:18;24.24;70.72
67364;HTU21D;54250;45.572;38.086;2023-06-10T14:54:44;24.19;70.75
67364;HTU21D;54250;45.572;38.086;2023-06-10T14:57:10;24.18;70.77
67364;HTU21D;54250;45.572;38.086;2023-06-10T14:59:36;24.16;70.81
67364;HTU21D;54250;45.572;38.086;2023-06-10T15:02:02;24.15;70.79
67364;HTU21D;54250;45.572;38.086;2023-06-10T15:04:28;24.13;70.90
67364;HTU21D;54250;45.572;38.086;2023-06-10T15:06:55;24.08;70.96
67364;HTU21D;54250;45.572;38.086;2023-06-10T15:09:21;24.04;70.99
67364;HTU21D;54250;45.572;38.086;2023-06-10T15:11:47;23.99;71.06
67364;HTU21D;54250;45.572;38.086;2023-06-10T15:14:13;23.94;71.25
67364;HTU21D;54250;45.572;38.086;2023-06-10T15:16:39;23.88;71.22
67364;HTU21D;54250;45.572;38.086;2023-06-10T15:19:05;23.85;71.25
67364;HTU21D;54250;45.572;38.086;2023-06-10T15:21:33;23.80;71.38
67364;HTU21D;54250;45.572;38.086;2023-06-10T15:24:00;23.73;71.48
67364;HTU21D;54250;45.572;38.086;2023-06-10T15:26:26;23.64;71.94
67364;HTU21D;54250;45.572;38.086;2023-06-10T15:28:52;23.51;72.37
67364;HTU21D;54250;45.572;38.086;2023-06-10T15:31:18;23.40;73.05